sensor_id;sensor_type;location;lat;lon;timestamp;P1;durP1;ratioP1;P2;durP2;ratioP2
49890;SDS011;35780;55.568;37.492;2022-08-11T00:00:31;4.15;;;1.50;;
49890;SDS011;35780;55.568;37.492;2022-08-11T00:03:02;2.42;;;1.20;;
49890;SDS011;35780;55.568;37.492;2022-08-11T00:05:29;2.60;;;1.27;;
49890;SDS011;35780;55.568;37.492;2022-08-11T00:07:56;10.80;;;2.15;;
49890;SDS011;35780;55.568;37.492;2022-08-11T00:10:24;3.15;;;1.33;;
49890;SDS011;35780;55.568;37.492;2022-08-11T00:12:55;4.00;;;1.40;;
49890;SDS011;35780;55.568;37.492;2022-08-11T00:15:24;3.13;;;1.05;;
49890;SDS011;35780;55.568;37.492;2022-08-11T00:17:56;4.30;;;1.40;;
49890;SDS011;35780;55.568;37.492;2022-08-11T00:20:27;5.55;;;1.30;;
49890;SDS011;35780;55.568;37.492;2022-08-11T00:22:58;2.95;;;1.30;;
49890;SDS011;35780;55.568;37.492;2022-08-11T00:25:31;2.70;;;1.50;;
49890;SDS011;35780;55.568;37.492;2022-08-11T00:28:21;5.78;;;1.50;;
49890;SDS011;35780;55.568;37.492;2022-08-11T00:30:50;3.95;;;1.33;;
49890;SDS011;35780;55.568;37.492;2022-08-11T00:33:17;3.67;;;1.20;;
49890;SDS011;35780;55.568;37.492;2022-08-11T00:35:44;4.18;;;1.08;;
49890;SDS011;35780;55.568;37.492;2022-08-11T00:38:10;3.90;;;1.13;;
49890;SDS011;35780;55.568;37.492;2022-08-11T00:43:40;2.50;;;1.35;;
49890;SDS011;35780;55.568;37.492;2022-08-11T00:51:27;4.97;;;1.75;;
49890;SDS011;35780;55.568;37.492;2022-08-11T00:54:04;4.53;;;1.55;;
49890;SDS011;35780;55.568;37.492;2022-08-11T00:57:10;4.15;;;1.80;;
49890;SDS011;35780;55.568;37.492;2022-08-11T01:02:19;4.95;;;1.70;;
49890;SDS011;35780;55.568;37.492;2022-08-11T01:05:02;3.90;;;1.80;;
49890;SDS011;35780;55.568;37.492;2022-08-11T01:27:12;3.50;;;1.45;;
49890;SDS011;35780;55.568;37.492;2022-08-11T01:41:35;3.17;;;1.33;;
49890;SDS011;35780;55.568;37.492;2022-08-11T01:53:20;4.40;;;1.60;;
49890;SDS011;35780;55.568;37.492;2022-08-11T01:55:58;3.90;;;1.50;;
49890;SDS011;35780;55.568;37.492;2022-08-11T02:12:13;6.53;;;1.40;;
49890;SDS011;35780;55.568;37.492;2022-08-11T02:18:03;5.10;;;1.98;;
49890;SDS011;35780;55.568;37.492;2022-08-11T02:23:35;3.67;;;1.55;;
49890;SDS011;35780;55.568;37.492;2022-08-11T02:37:09;1.80;;;1.10;;
49890;SDS011;35780;55.568;37.492;2022-08-11T02:43:10;3.30;;;1.45;;
49890;SDS011;35780;55.568;37.492;2022-08-11T02:53:50;4.05;;;1.60;;
49890;SDS011;35780;55.568;37.492;2022-08-11T02:59:52;6.10;;;1.52;;
49890;SDS011;35780;55.568;37.492;2022-08-11T03:02:42;3.20;;;1.40;;
49890;SDS011;35780;55.568;37.492;2022-08-11T03:13:21;4.60;;;1.50;;
49890;SDS011;35780;55.568;37.492;2022-08-11T03:16:24;4.07;;;1.25;;
49890;SDS011;35780;55.568;37.492;2022-08-11T03:19:25;5.47;;;1.45;;
49890;SDS011;35780;55.568;37.492;2022-08-11T03:28:10;2.58;;;1.60;;
49890;SDS011;35780;55.568;37.492;2022-08-11T03:31:28;5.47;;;1.50;;
49890;SDS011;35780;55.568;37.492;2022-08-11T03:33:56;3.22;;;1.55;;
49890;SDS011;35780;55.568;37.492;2022-08-11T04:07:23;8.02;;;1.90;;
49890;SDS011;35780;55.568;37.492;2022-08-11T04:15:51;9.02;;;2.03;;
49890;SDS011;35780;55.568;37.492;2022-08-11T04:30:29;8.75;;;1.90;;
49890;SDS011;35780;55.568;37.492;2022-08-11T05:07:57;7.78;;;3.40;;
49890;SDS011;35780;55.568;37.492;2022-08-11T05:13:29;9.07;;;2.35;;
49890;SDS011;35780;55.568;37.492;2022-08-11T05:16:27;8.45;;;2.42;;
49890;SDS011;35780;55.568;37.492;2022-08-11T05:19:14;4.50;;;2.00;;
49890;SDS011;35780;55.568;37.492;2022-08-11T05:22:00;4.53;;;1.75;;
49890;SDS011;35780;55.568;37.492;2022-08-11T05:25:06;6.90;;;1.90;;
49890;SDS011;35780;55.568;37.492;2022-08-11T05:27:56;5.72;;;2.13;;
49890;SDS011;35780;55.568;37.492;2022-08-11T05:31:02;9.95;;;2.08;;
49890;SDS011;35780;55.568;37.492;2022-08-11T05:33:50;7.68;;;1.88;;
49890;SDS011;35780;55.568;37.492;2022-08-11T05:39:32;6.32;;;2.20;;
49890;SDS011;35780;55.568;37.492;2022-08-11T05:42:21;6.95;;;2.38;;
49890;SDS011;35780;55.568;37.492;2022-08-11T05:45:13;9.50;;;2.58;;
49890;SDS011;35780;55.568;37.492;2022-08-11T05:47:58;9.38;;;1.95;;
49890;SDS011;35780;55.568;37.492;2022-08-11T05:50:49;8.40;;;2.28;;
49890;SDS011;35780;55.568;37.492;2022-08-11T05:54:13;21.70;;;3.42;;
49890;SDS011;35780;55.568;37.492;2022-08-11T05:56:49;7.70;;;2.42;;
49890;SDS011;35780;55.568;37.492;2022-08-11T05:59:21;7.88;;;2.50;;
49890;SDS011;35780;55.568;37.492;2022-08-11T06:01:48;5.32;;;2.13;;
49890;SDS011;35780;55.568;37.492;2022-08-11T06:04:19;5.15;;;2.35;;
49890;SDS011;35780;55.568;37.492;2022-08-11T06:09:35;6.63;;;2.28;;
49890;SDS011;35780;55.568;37.492;2022-08-11T06:12:03;8.68;;;2.70;;
49890;SDS011;35780;55.568;37.492;2022-08-11T06:14:33;4.57;;;1.83;;
49890;SDS011;35780;55.568;37.492;2022-08-11T06:17:01;5.85;;;1.88;;
49890;SDS011;35780;55.568;37.492;2022-08-11T06:19:37;5.47;;;2.13;;
49890;SDS011;35780;55.568;37.492;2022-08-11T06:22:04;4.25;;;2.00;;
49890;SDS011;35780;55.568;37.492;2022-08-11T06:24:31;5.80;;;1.88;;
49890;SDS011;35780;55.568;37.492;2022-08-11T06:26:57;6.38;;;1.73;;
49890;SDS011;35780;55.568;37.492;2022-08-11T06:29:23;5.20;;;1.80;;
49890;SDS011;35780;55.568;37.492;2022-08-11T06:31:51;7.22;;;2.22;;
49890;SDS011;35780;55.568;37.492;2022-08-11T06:34:33;5.65;;;1.73;;
49890;SDS011;35780;55.568;37.492;2022-08-11T06:39:38;6.32;;;2.13;;
49890;SDS011;35780;55.568;37.492;2022-08-11T06:48:17;8.13;;;2.17;;
49890;SDS011;35780;55.568;37.492;2022-08-11T06:50:51;9.45;;;2.10;;
49890;SDS011;35780;55.568;37.492;2022-08-11T06:53:43;8.02;;;2.45;;
49890;SDS011;35780;55.568;37.492;2022-08-11T06:56:15;4.97;;;2.13;;
49890;SDS011;35780;55.568;37.492;2022-08-11T06:59:05;7.22;;;1.83;;
49890;SDS011;35780;55.568;37.492;2022-08-11T07:04:42;4.88;;;1.92;;
49890;SDS011;35780;55.568;37.492;2022-08-11T07:10:22;9.82;;;1.80;;
49890;SDS011;35780;55.568;37.492;2022-08-11T07:13:18;4.55;;;1.50;;
49890;SDS011;35780;55.568;37.492;2022-08-11T07:16:02;3.30;;;1.70;;
49890;SDS011;35780;55.568;37.492;2022-08-11T07:18:30;7.32;;;1.63;;
49890;SDS011;35780;55.568;37.492;2022-08-11T07:24:16;2.92;;;1.55;;
49890;SDS011;35780;55.568;37.492;2022-08-11T07:27:03;8.02;;;2.15;;
49890;SDS011;35780;55.568;37.492;2022-08-11T07:29:49;7.28;;;1.92;;
49890;SDS011;35780;55.568;37.492;2022-08-11T07:32:59;3.40;;;1.65;;
49890;SDS011;35780;55.568;37.492;2022-08-11T07:35:16;8.35;;;2.00;;
49890;SDS011;35780;55.568;37.492;2022-08-11T07:37:46;3.53;;;1.73;;
49890;SDS011;35780;55.568;37.492;2022-08-11T07:40:21;3.22;;;1.88;;
49890;SDS011;35780;55.568;37.492;2022-08-11T07:42:47;2.58;;;1.30;;
49890;SDS011;35780;55.568;37.492;2022-08-11T07:45:14;7.22;;;1.55;;
49890;SDS011;35780;55.568;37.492;2022-08-11T07:47:58;4.65;;;1.65;;
49890;SDS011;35780;55.568;37.492;2022-08-11T07:50:43;3.45;;;1.35;;
49890;SDS011;35780;55.568;37.492;2022-08-11T07:53:27;4.70;;;1.60;;
49890;SDS011;35780;55.568;37.492;2022-08-11T07:55:54;4.10;;;1.35;;
49890;SDS011;35780;55.568;37.492;2022-08-11T07:58:22;6.25;;;1.52;;
49890;SDS011;35780;55.568;37.492;2022-08-11T08:01:06;11.10;;;1.60;;
49890;SDS011;35780;55.568;37.492;2022-08-11T08:03:51;6.75;;;1.80;;
49890;SDS011;35780;55.568;37.492;2022-08-11T08:06:35;7.28;;;1.80;;
49890;SDS011;35780;55.568;37.492;2022-08-11T08:09:20;3.42;;;1.80;;
49890;SDS011;35780;55.568;37.492;2022-08-11T08:12:04;8.90;;;2.40;;
49890;SDS011;35780;55.568;37.492;2022-08-11T08:14:50;4.32;;;2.10;;
49890;SDS011;35780;55.568;37.492;2022-08-11T08:17:35;3.92;;;1.92;;
49890;SDS011;35780;55.568;37.492;2022-08-11T08:20:20;4.32;;;2.20;;
49890;SDS011;35780;55.568;37.492;2022-08-11T08:22:58;4.38;;;2.20;;
49890;SDS011;35780;55.568;37.492;2022-08-11T08:25:26;7.50;;;2.30;;
49890;SDS011;35780;55.568;37.492;2022-08-11T08:27:53;5.13;;;2.40;;
49890;SDS011;35780;55.568;37.492;2022-08-11T08:30:20;10.27;;;2.70;;
49890;SDS011;35780;55.568;37.492;2022-08-11T08:33:05;9.35;;;2.10;;
49890;SDS011;35780;55.568;37.492;2022-08-11T08:35:31;3.75;;;1.65;;
49890;SDS011;35780;55.568;37.492;2022-08-11T08:37:56;6.22;;;1.80;;
49890;SDS011;35780;55.568;37.492;2022-08-11T08:40:24;4.28;;;1.98;;
49890;SDS011;35780;55.568;37.492;2022-08-11T08:42:57;5.28;;;2.50;;
49890;SDS011;35780;55.568;37.492;2022-08-11T08:45:26;3.75;;;1.80;;
49890;SDS011;35780;55.568;37.492;2022-08-11T08:48:03;4.25;;;1.60;;
49890;SDS011;35780;55.568;37.492;2022-08-11T08:50:34;4.88;;;1.83;;
49890;SDS011;35780;55.568;37.492;2022-08-11T08:53:22;6.03;;;1.90;;
49890;SDS011;35780;55.568;37.492;2022-08-11T08:55:49;7.53;;;4.72;;
49890;SDS011;35780;55.568;37.492;2022-08-11T08:58:15;4.68;;;2.53;;
49890;SDS011;35780;55.568;37.492;2022-08-11T09:00:44;4.97;;;1.88;;
49890;SDS011;35780;55.568;37.492;2022-08-11T09:03:10;4.00;;;2.50;;
49890;SDS011;35780;55.568;37.492;2022-08-11T09:05:38;4.03;;;1.95;;
49890;SDS011;35780;55.568;37.492;2022-08-11T09:08:04;4.07;;;1.63;;
49890;SDS011;35780;55.568;37.492;2022-08-11T09:10:30;5.03;;;2.20;;
49890;SDS011;35780;55.568;37.492;2022-08-11T09:12:57;7.25;;;2.78;;
49890;SDS011;35780;55.568;37.492;2022-08-11T09:15:23;4.47;;;1.70;;
49890;SDS011;35780;55.568;37.492;2022-08-11T09:17:53;4.75;;;2.00;;
49890;SDS011;35780;55.568;37.492;2022-08-11T09:20:27;5.18;;;1.70;;
49890;SDS011;35780;55.568;37.492;2022-08-11T09:22:58;5.57;;;1.77;;
49890;SDS011;35780;55.568;37.492;2022-08-11T09:25:46;2.95;;;1.70;;
49890;SDS011;35780;55.568;37.492;2022-08-11T09:28:32;5.90;;;2.20;;
49890;SDS011;35780;55.568;37.492;2022-08-11T09:31:00;12.63;;;2.20;;
49890;SDS011;35780;55.568;37.492;2022-08-11T09:33:27;4.55;;;2.30;;
49890;SDS011;35780;55.568;37.492;2022-08-11T09:35:53;5.85;;;2.15;;
49890;SDS011;35780;55.568;37.492;2022-08-11T09:38:21;3.95;;;2.25;;
49890;SDS011;35780;55.568;37.492;2022-08-11T09:41:08;9.38;;;2.33;;
49890;SDS011;35780;55.568;37.492;2022-08-11T09:43:35;5.50;;;2.17;;
49890;SDS011;35780;55.568;37.492;2022-08-11T09:46:22;5.75;;;2.10;;
49890;SDS011;35780;55.568;37.492;2022-08-11T09:48:51;3.58;;;1.85;;
49890;SDS011;35780;55.568;37.492;2022-08-11T09:51:19;5.40;;;2.50;;
49890;SDS011;35780;55.568;37.492;2022-08-11T09:53:45;9.77;;;2.15;;
49890;SDS011;35780;55.568;37.492;2022-08-11T09:56:12;6.78;;;2.83;;
49890;SDS011;35780;55.568;37.492;2022-08-11T09:58:58;4.50;;;2.05;;
49890;SDS011;35780;55.568;37.492;2022-08-11T10:01:27;2.97;;;1.73;;
49890;SDS011;35780;55.568;37.492;2022-08-11T10:03:57;6.68;;;2.75;;
49890;SDS011;35780;55.568;37.492;2022-08-11T10:06:25;2.83;;;1.80;;
49890;SDS011;35780;55.568;37.492;2022-08-11T10:09:18;7.30;;;5.70;;
49890;SDS011;35780;55.568;37.492;2022-08-11T10:11:45;3.55;;;2.03;;
49890;SDS011;35780;55.568;37.492;2022-08-11T10:14:12;7.30;;;1.77;;
49890;SDS011;35780;55.568;37.492;2022-08-11T10:16:57;10.35;;;2.28;;
49890;SDS011;35780;55.568;37.492;2022-08-11T10:19:23;3.90;;;2.10;;
49890;SDS011;35780;55.568;37.492;2022-08-11T10:21:52;4.65;;;2.00;;
49890;SDS011;35780;55.568;37.492;2022-08-11T10:24:37;4.10;;;1.85;;
49890;SDS011;35780;55.568;37.492;2022-08-11T10:27:22;11.30;;;2.20;;
49890;SDS011;35780;55.568;37.492;2022-08-11T10:29:48;5.35;;;1.90;;
49890;SDS011;35780;55.568;37.492;2022-08-11T10:32:32;7.53;;;1.92;;
49890;SDS011;35780;55.568;37.492;2022-08-11T10:35:17;8.35;;;2.55;;
49890;SDS011;35780;55.568;37.492;2022-08-11T10:37:44;7.18;;;2.13;;
49890;SDS011;35780;55.568;37.492;2022-08-11T10:40:15;9.23;;;2.30;;
49890;SDS011;35780;55.568;37.492;2022-08-11T10:42:42;7.28;;;3.67;;
49890;SDS011;35780;55.568;37.492;2022-08-11T10:45:31;4.85;;;1.80;;
49890;SDS011;35780;55.568;37.492;2022-08-11T10:48:17;5.90;;;1.88;;
49890;SDS011;35780;55.568;37.492;2022-08-11T10:50:48;5.35;;;2.40;;
49890;SDS011;35780;55.568;37.492;2022-08-11T10:53:33;3.50;;;1.83;;
49890;SDS011;35780;55.568;37.492;2022-08-11T10:56:18;6.25;;;2.00;;
49890;SDS011;35780;55.568;37.492;2022-08-11T10:59:04;6.22;;;2.60;;
49890;SDS011;35780;55.568;37.492;2022-08-11T11:01:33;3.58;;;1.67;;
49890;SDS011;35780;55.568;37.492;2022-08-11T11:04:12;5.18;;;1.75;;
49890;SDS011;35780;55.568;37.492;2022-08-11T11:09:17;3.90;;;2.25;;
49890;SDS011;35780;55.568;37.492;2022-08-11T11:11:56;6.88;;;2.00;;
49890;SDS011;35780;55.568;37.492;2022-08-11T11:14:42;4.82;;;1.75;;
49890;SDS011;35780;55.568;37.492;2022-08-11T11:17:31;3.67;;;1.88;;
49890;SDS011;35780;55.568;37.492;2022-08-11T11:20:32;10.88;;;3.15;;
49890;SDS011;35780;55.568;37.492;2022-08-11T11:36:49;4.93;;;2.15;;
49890;SDS011;35780;55.568;37.492;2022-08-11T11:39:18;7.00;;;2.75;;
49890;SDS011;35780;55.568;37.492;2022-08-11T11:41:45;8.77;;;2.28;;
49890;SDS011;35780;55.568;37.492;2022-08-11T11:44:11;7.60;;;2.67;;
49890;SDS011;35780;55.568;37.492;2022-08-11T11:46:38;3.30;;;2.00;;
49890;SDS011;35780;55.568;37.492;2022-08-11T11:49:04;9.38;;;2.10;;
49890;SDS011;35780;55.568;37.492;2022-08-11T11:51:33;5.00;;;2.13;;
49890;SDS011;35780;55.568;37.492;2022-08-11T11:54:00;2.80;;;1.65;;
49890;SDS011;35780;55.568;37.492;2022-08-11T11:56:27;6.00;;;1.80;;
49890;SDS011;35780;55.568;37.492;2022-08-11T11:58:53;5.10;;;2.08;;
49890;SDS011;35780;55.568;37.492;2022-08-11T12:01:38;8.32;;;3.95;;
49890;SDS011;35780;55.568;37.492;2022-08-11T12:04:04;5.80;;;2.40;;
49890;SDS011;35780;55.568;37.492;2022-08-11T12:06:30;4.13;;;2.55;;
49890;SDS011;35780;55.568;37.492;2022-08-11T12:08:57;6.72;;;1.70;;
49890;SDS011;35780;55.568;37.492;2022-08-11T12:11:24;5.13;;;1.98;;
49890;SDS011;35780;55.568;37.492;2022-08-11T12:14:10;19.88;;;2.00;;
49890;SDS011;35780;55.568;37.492;2022-08-11T12:16:37;8.80;;;3.63;;
49890;SDS011;35780;55.568;37.492;2022-08-11T12:19:11;9.27;;;2.58;;
49890;SDS011;35780;55.568;37.492;2022-08-11T12:21:45;6.28;;;3.63;;
49890;SDS011;35780;55.568;37.492;2022-08-11T12:24:31;3.92;;;2.03;;
49890;SDS011;35780;55.568;37.492;2022-08-11T12:27:17;3.58;;;2.03;;
49890;SDS011;35780;55.568;37.492;2022-08-11T12:29:49;8.75;;;1.80;;
49890;SDS011;35780;55.568;37.492;2022-08-11T12:32:16;6.70;;;2.00;;
49890;SDS011;35780;55.568;37.492;2022-08-11T12:34:43;5.18;;;2.17;;
49890;SDS011;35780;55.568;37.492;2022-08-11T12:37:08;6.22;;;2.10;;
49890;SDS011;35780;55.568;37.492;2022-08-11T12:39:38;3.90;;;2.10;;
49890;SDS011;35780;55.568;37.492;2022-08-11T12:42:26;4.53;;;2.20;;
49890;SDS011;35780;55.568;37.492;2022-08-11T12:45:31;8.00;;;2.08;;
49890;SDS011;35780;55.568;37.492;2022-08-11T12:48:08;6.43;;;2.05;;
49890;SDS011;35780;55.568;37.492;2022-08-11T12:51:04;8.57;;;2.22;;
49890;SDS011;35780;55.568;37.492;2022-08-11T12:53:54;6.43;;;2.20;;
49890;SDS011;35780;55.568;37.492;2022-08-11T12:56:23;6.10;;;2.97;;
49890;SDS011;35780;55.568;37.492;2022-08-11T12:59:10;9.50;;;2.25;;
49890;SDS011;35780;55.568;37.492;2022-08-11T13:01:54;8.20;;;2.00;;
49890;SDS011;35780;55.568;37.492;2022-08-11T13:04:40;5.57;;;1.90;;
49890;SDS011;35780;55.568;37.492;2022-08-11T13:07:20;8.38;;;2.20;;
49890;SDS011;35780;55.568;37.492;2022-08-11T13:09:46;5.18;;;2.45;;
49890;SDS011;35780;55.568;37.492;2022-08-11T13:12:13;4.70;;;1.67;;
49890;SDS011;35780;55.568;37.492;2022-08-11T13:14:57;4.20;;;2.13;;
49890;SDS011;35780;55.568;37.492;2022-08-11T13:17:23;7.15;;;1.60;;
49890;SDS011;35780;55.568;37.492;2022-08-11T13:19:50;4.47;;;1.80;;
49890;SDS011;35780;55.568;37.492;2022-08-11T13:22:18;7.85;;;2.78;;
49890;SDS011;35780;55.568;37.492;2022-08-11T13:24:44;4.00;;;2.05;;
49890;SDS011;35780;55.568;37.492;2022-08-11T13:27:10;5.90;;;3.47;;
49890;SDS011;35780;55.568;37.492;2022-08-11T13:29:40;7.05;;;2.53;;
49890;SDS011;35780;55.568;37.492;2022-08-11T13:32:06;5.15;;;2.03;;
49890;SDS011;35780;55.568;37.492;2022-08-11T13:34:32;6.82;;;1.88;;
49890;SDS011;35780;55.568;37.492;2022-08-11T13:37:05;7.57;;;2.20;;
49890;SDS011;35780;55.568;37.492;2022-08-11T13:39:32;5.70;;;2.47;;
49890;SDS011;35780;55.568;37.492;2022-08-11T13:41:58;6.18;;;2.60;;
49890;SDS011;35780;55.568;37.492;2022-08-11T13:44:25;6.15;;;2.92;;
49890;SDS011;35780;55.568;37.492;2022-08-11T13:46:57;7.00;;;2.60;;
49890;SDS011;35780;55.568;37.492;2022-08-11T13:49:25;5.05;;;1.80;;
49890;SDS011;35780;55.568;37.492;2022-08-11T13:51:51;7.82;;;2.22;;
49890;SDS011;35780;55.568;37.492;2022-08-11T13:54:20;8.23;;;2.70;;
49890;SDS011;35780;55.568;37.492;2022-08-11T13:56:47;4.07;;;2.28;;
49890;SDS011;35780;55.568;37.492;2022-08-11T13:59:17;6.18;;;2.00;;
49890;SDS011;35780;55.568;37.492;2022-08-11T14:01:51;9.32;;;2.95;;
49890;SDS011;35780;55.568;37.492;2022-08-11T14:04:22;7.63;;;2.63;;
49890;SDS011;35780;55.568;37.492;2022-08-11T14:06:53;4.90;;;2.97;;
49890;SDS011;35780;55.568;37.492;2022-08-11T14:09:20;6.50;;;2.33;;
49890;SDS011;35780;55.568;37.492;2022-08-11T14:11:47;11.25;;;7.05;;
49890;SDS011;35780;55.568;37.492;2022-08-11T14:14:32;7.88;;;5.35;;
49890;SDS011;35780;55.568;37.492;2022-08-11T14:17:08;6.97;;;5.05;;
49890;SDS011;35780;55.568;37.492;2022-08-11T14:19:35;9.20;;;4.32;;
49890;SDS011;35780;55.568;37.492;2022-08-11T14:22:03;7.65;;;2.22;;
49890;SDS011;35780;55.568;37.492;2022-08-11T14:27:14;10.52;;;2.20;;
49890;SDS011;35780;55.568;37.492;2022-08-11T14:29:41;10.95;;;3.47;;
49890;SDS011;35780;55.568;37.492;2022-08-11T14:32:09;7.43;;;2.70;;
49890;SDS011;35780;55.568;37.492;2022-08-11T14:34:37;7.53;;;2.35;;
49890;SDS011;35780;55.568;37.492;2022-08-11T14:37:17;10.13;;;4.00;;
49890;SDS011;35780;55.568;37.492;2022-08-11T14:42:18;6.00;;;3.22;;
49890;SDS011;35780;55.568;37.492;2022-08-11T14:45:06;6.50;;;2.90;;
49890;SDS011;35780;55.568;37.492;2022-08-11T14:47:53;5.85;;;3.63;;
49890;SDS011;35780;55.568;37.492;2022-08-11T14:50:22;10.68;;;2.20;;
49890;SDS011;35780;55.568;37.492;2022-08-11T14:52:50;5.28;;;2.17;;
49890;SDS011;35780;55.568;37.492;2022-08-11T14:55:27;7.65;;;4.60;;
49890;SDS011;35780;55.568;37.492;2022-08-11T14:58:14;7.93;;;3.25;;
49890;SDS011;35780;55.568;37.492;2022-08-11T15:00:41;9.77;;;2.95;;
49890;SDS011;35780;55.568;37.492;2022-08-11T15:03:09;6.72;;;2.55;;
49890;SDS011;35780;55.568;37.492;2022-08-11T15:05:52;7.75;;;2.80;;
49890;SDS011;35780;55.568;37.492;2022-08-11T15:08:20;6.53;;;2.13;;
49890;SDS011;35780;55.568;37.492;2022-08-11T15:11:10;7.93;;;3.92;;
49890;SDS011;35780;55.568;37.492;2022-08-11T15:13:56;7.68;;;3.92;;
49890;SDS011;35780;55.568;37.492;2022-08-11T15:16:23;9.68;;;5.53;;
49890;SDS011;35780;55.568;37.492;2022-08-11T15:19:09;5.68;;;2.80;;
49890;SDS011;35780;55.568;37.492;2022-08-11T15:21:35;7.88;;;4.35;;
49890;SDS011;35780;55.568;37.492;2022-08-11T15:24:19;7.82;;;3.72;;
49890;SDS011;35780;55.568;37.492;2022-08-11T15:26:45;12.98;;;3.47;;
49890;SDS011;35780;55.568;37.492;2022-08-11T15:29:31;5.88;;;2.92;;
49890;SDS011;35780;55.568;37.492;2022-08-11T15:32:16;10.65;;;4.35;;
49890;SDS011;35780;55.568;37.492;2022-08-11T15:34:44;12.27;;;4.28;;
49890;SDS011;35780;55.568;37.492;2022-08-11T15:37:32;4.88;;;2.60;;
49890;SDS011;35780;55.568;37.492;2022-08-11T15:43:27;9.25;;;2.97;;
49890;SDS011;35780;55.568;37.492;2022-08-11T15:45:54;4.93;;;2.20;;
49890;SDS011;35780;55.568;37.492;2022-08-11T15:51:01;6.25;;;2.85;;
49890;SDS011;35780;55.568;37.492;2022-08-11T15:53:46;5.22;;;2.50;;
49890;SDS011;35780;55.568;37.492;2022-08-11T15:56:15;5.93;;;3.03;;
49890;SDS011;35780;55.568;37.492;2022-08-11T15:58:41;11.55;;;2.90;;
49890;SDS011;35780;55.568;37.492;2022-08-11T16:01:28;7.60;;;2.80;;
49890;SDS011;35780;55.568;37.492;2022-08-11T16:04:15;6.38;;;2.78;;
49890;SDS011;35780;55.568;37.492;2022-08-11T16:06:50;12.88;;;3.15;;
49890;SDS011;35780;55.568;37.492;2022-08-11T16:09:21;13.40;;;2.90;;
49890;SDS011;35780;55.568;37.492;2022-08-11T16:11:51;12.88;;;2.90;;
49890;SDS011;35780;55.568;37.492;2022-08-11T16:14:17;10.50;;;3.10;;
49890;SDS011;35780;55.568;37.492;2022-08-11T16:17:03;11.10;;;3.60;;
49890;SDS011;35780;55.568;37.492;2022-08-11T16:19:30;14.18;;;3.45;;
49890;SDS011;35780;55.568;37.492;2022-08-11T16:22:00;14.95;;;3.85;;
49890;SDS011;35780;55.568;37.492;2022-08-11T16:24:29;11.95;;;3.72;;
49890;SDS011;35780;55.568;37.492;2022-08-11T16:26:56;6.93;;;3.15;;
49890;SDS011;35780;55.568;37.492;2022-08-11T16:29:22;10.73;;;2.83;;
49890;SDS011;35780;55.568;37.492;2022-08-11T16:31:49;10.13;;;3.33;;
49890;SDS011;35780;55.568;37.492;2022-08-11T16:34:34;13.00;;;3.42;;
49890;SDS011;35780;55.568;37.492;2022-08-11T16:37:21;13.18;;;3.80;;
49890;SDS011;35780;55.568;37.492;2022-08-11T16:40:06;13.95;;;4.00;;
49890;SDS011;35780;55.568;37.492;2022-08-11T16:42:33;17.23;;;3.40;;
49890;SDS011;35780;55.568;37.492;2022-08-11T16:45:18;16.45;;;3.17;;
49890;SDS011;35780;55.568;37.492;2022-08-11T16:48:02;22.42;;;3.53;;
49890;SDS011;35780;55.568;37.492;2022-08-11T16:50:30;12.38;;;3.00;;
49890;SDS011;35780;55.568;37.492;2022-08-11T16:52:56;11.25;;;3.30;;
49890;SDS011;35780;55.568;37.492;2022-08-11T16:55:22;24.15;;;3.80;;
49890;SDS011;35780;55.568;37.492;2022-08-11T16:57:47;18.05;;;3.55;;
49890;SDS011;35780;55.568;37.492;2022-08-11T17:00:31;26.60;;;4.10;;
49890;SDS011;35780;55.568;37.492;2022-08-11T17:02:58;27.20;;;4.47;;
49890;SDS011;35780;55.568;37.492;2022-08-11T17:05:45;11.20;;;4.13;;
49890;SDS011;35780;55.568;37.492;2022-08-11T17:08:35;13.55;;;3.60;;
49890;SDS011;35780;55.568;37.492;2022-08-11T17:11:26;13.82;;;4.40;;
49890;SDS011;35780;55.568;37.492;2022-08-11T17:14:13;17.92;;;4.18;;
49890;SDS011;35780;55.568;37.492;2022-08-11T17:16:41;13.65;;;3.55;;
49890;SDS011;35780;55.568;37.492;2022-08-11T17:21:42;16.98;;;3.60;;
49890;SDS011;35780;55.568;37.492;2022-08-11T17:24:30;11.95;;;3.38;;
49890;SDS011;35780;55.568;37.492;2022-08-11T17:26:58;13.27;;;3.97;;
49890;SDS011;35780;55.568;37.492;2022-08-11T17:31:53;11.82;;;3.20;;
49890;SDS011;35780;55.568;37.492;2022-08-11T17:34:38;16.65;;;3.42;;
49890;SDS011;35780;55.568;37.492;2022-08-11T17:37:23;14.27;;;3.50;;
49890;SDS011;35780;55.568;37.492;2022-08-11T17:39:49;10.73;;;3.35;;
49890;SDS011;35780;55.568;37.492;2022-08-11T17:42:15;11.65;;;3.55;;
49890;SDS011;35780;55.568;37.492;2022-08-11T17:45:00;18.85;;;5.65;;
49890;SDS011;35780;55.568;37.492;2022-08-11T17:47:46;11.65;;;3.90;;
49890;SDS011;35780;55.568;37.492;2022-08-11T17:50:30;11.82;;;3.53;;
49890;SDS011;35780;55.568;37.492;2022-08-11T17:52:57;15.68;;;3.60;;
49890;SDS011;35780;55.568;37.492;2022-08-11T17:55:41;19.10;;;4.10;;
49890;SDS011;35780;55.568;37.492;2022-08-11T17:58:25;12.35;;;4.43;;
49890;SDS011;35780;55.568;37.492;2022-08-11T18:01:10;23.65;;;6.32;;
49890;SDS011;35780;55.568;37.492;2022-08-11T18:03:40;12.00;;;4.75;;
49890;SDS011;35780;55.568;37.492;2022-08-11T18:06:07;22.33;;;5.18;;
49890;SDS011;35780;55.568;37.492;2022-08-11T18:08:36;20.40;;;5.85;;
49890;SDS011;35780;55.568;37.492;2022-08-11T18:11:25;20.60;;;6.07;;
49890;SDS011;35780;55.568;37.492;2022-08-11T18:14:10;13.50;;;5.50;;
49890;SDS011;35780;55.568;37.492;2022-08-11T18:16:55;14.80;;;5.57;;
49890;SDS011;35780;55.568;37.492;2022-08-11T18:19:40;19.13;;;5.38;;
49890;SDS011;35780;55.568;37.492;2022-08-11T18:22:25;14.65;;;5.70;;
49890;SDS011;35780;55.568;37.492;2022-08-11T18:25:13;14.32;;;5.57;;
49890;SDS011;35780;55.568;37.492;2022-08-11T18:27:59;13.45;;;5.70;;
49890;SDS011;35780;55.568;37.492;2022-08-11T18:30:44;19.35;;;9.43;;
49890;SDS011;35780;55.568;37.492;2022-08-11T18:33:32;20.25;;;10.43;;
49890;SDS011;35780;55.568;37.492;2022-08-11T18:36:28;23.80;;;9.02;;
49890;SDS011;35780;55.568;37.492;2022-08-11T18:39:14;30.15;;;11.15;;
49890;SDS011;35780;55.568;37.492;2022-08-11T18:42:03;24.45;;;11.48;;
49890;SDS011;35780;55.568;37.492;2022-08-11T18:44:49;20.33;;;9.45;;
49890;SDS011;35780;55.568;37.492;2022-08-11T18:47:34;27.75;;;8.27;;
49890;SDS011;35780;55.568;37.492;2022-08-11T18:50:19;23.42;;;10.55;;
49890;SDS011;35780;55.568;37.492;2022-08-11T18:53:03;23.25;;;8.75;;
49890;SDS011;35780;55.568;37.492;2022-08-11T18:55:48;14.57;;;7.93;;
49890;SDS011;35780;55.568;37.492;2022-08-11T18:58:34;19.15;;;7.20;;
49890;SDS011;35780;55.568;37.492;2022-08-11T19:01:20;16.38;;;6.82;;
49890;SDS011;35780;55.568;37.492;2022-08-11T19:04:05;16.55;;;7.07;;
49890;SDS011;35780;55.568;37.492;2022-08-11T19:06:51;21.88;;;8.65;;
49890;SDS011;35780;55.568;37.492;2022-08-11T19:09:37;12.00;;;6.43;;
49890;SDS011;35780;55.568;37.492;2022-08-11T19:12:23;18.77;;;6.63;;
49890;SDS011;35780;55.568;37.492;2022-08-11T19:15:09;9.60;;;5.60;;
49890;SDS011;35780;55.568;37.492;2022-08-11T19:17:54;15.70;;;4.25;;
49890;SDS011;35780;55.568;37.492;2022-08-11T19:20:38;10.95;;;4.15;;
49890;SDS011;35780;55.568;37.492;2022-08-11T19:23:27;13.45;;;4.47;;
49890;SDS011;35780;55.568;37.492;2022-08-11T19:26:15;12.63;;;3.80;;
49890;SDS011;35780;55.568;37.492;2022-08-11T19:28:59;14.82;;;8.27;;
49890;SDS011;35780;55.568;37.492;2022-08-11T19:31:44;16.17;;;5.18;;
49890;SDS011;35780;55.568;37.492;2022-08-11T19:34:29;9.88;;;4.32;;
49890;SDS011;35780;55.568;37.492;2022-08-11T19:37:13;16.15;;;5.00;;
49890;SDS011;35780;55.568;37.492;2022-08-11T19:39:59;8.93;;;4.57;;